sensor_id;sensor_type;location;lat;lon;timestamp;P1;durP1;ratioP1;P2;durP2;ratioP2
4323;SDS011;2175;51.018;6.994;2023-01-08T00:00:42;3.40;;;2.13;;
4323;SDS011;2175;51.018;6.994;2023-01-08T00:03:08;8.63;;;2.13;;
4323;SDS011;2175;51.018;6.994;2023-01-08T00:05:35;2.90;;;2.13;;
4323;SDS011;2175;51.018;6.994;2023-01-08T00:08:01;2.83;;;2.23;;
4323;SDS011;2175;51.018;6.994;2023-01-08T00:10:27;3.83;;;2.23;;
4323;SDS011;2175;51.018;6.994;2023-01-08T00:12:56;3.90;;;2.07;;
4323;SDS011;2175;51.018;6.994;2023-01-08T00:15:22;2.63;;;2.00;;
4323;SDS011;2175;51.018;6.994;2023-01-08T00:17:48;2.90;;;2.10;;
4323;SDS011;2175;51.018;6.994;2023-01-08T00:20:14;3.17;;;2.20;;
4323;SDS011;2175;51.018;6.994;2023-01-08T00:22:41;2.63;;;2.20;;
4323;SDS011;2175;51.018;6.994;2023-01-08T00:25:07;3.13;;;2.40;;
4323;SDS011;2175;51.018;6.994;2023-01-08T00:27:33;3.50;;;2.10;;
4323;SDS011;2175;51.018;6.994;2023-01-08T00:29:59;3.50;;;2.30;;
4323;SDS011;2175;51.018;6.994;2023-01-08T00:32:25;3.53;;;2.20;;
4323;SDS011;2175;51.018;6.994;2023-01-08T00:34:51;2.40;;;1.97;;
4323;SDS011;2175;51.018;6.994;2023-01-08T00:37:18;3.50;;;2.50;;
4323;SDS011;2175;51.018;6.994;2023-01-08T00:39:45;4.27;;;2.17;;
4323;SDS011;2175;51.018;6.994;2023-01-08T00:42:11;3.10;;;2.30;;
4323;SDS011;2175;51.018;6.994;2023-01-08T00:44:37;3.47;;;2.47;;
4323;SDS011;2175;51.018;6.994;2023-01-08T00:47:03;3.63;;;2.37;;
4323;SDS011;2175;51.018;6.994;2023-01-08T00:49:29;3.43;;;2.37;;
4323;SDS011;2175;51.018;6.994;2023-01-08T00:51:55;3.70;;;2.13;;
4323;SDS011;2175;51.018;6.994;2023-01-08T00:54:21;4.00;;;2.53;;
4323;SDS011;2175;51.018;6.994;2023-01-08T00:56:47;4.27;;;2.67;;
4323;SDS011;2175;51.018;6.994;2023-01-08T00:59:13;3.63;;;2.40;;
4323;SDS011;2175;51.018;6.994;2023-01-08T01:01:39;3.90;;;2.53;;
4323;SDS011;2175;51.018;6.994;2023-01-08T01:04:05;5.17;;;2.60;;
4323;SDS011;2175;51.018;6.994;2023-01-08T01:06:31;3.13;;;2.40;;
4323;SDS011;2175;51.018;6.994;2023-01-08T01:08:57;4.40;;;2.70;;
4323;SDS011;2175;51.018;6.994;2023-01-08T01:11:24;4.20;;;2.57;;
4323;SDS011;2175;51.018;6.994;2023-01-08T01:13:51;3.53;;;2.30;;
4323;SDS011;2175;51.018;6.994;2023-01-08T01:16:17;3.50;;;1.97;;
4323;SDS011;2175;51.018;6.994;2023-01-08T01:18:43;4.37;;;2.57;;
4323;SDS011;2175;51.018;6.994;2023-01-08T01:21:23;3.33;;;2.40;;
4323;SDS011;2175;51.018;6.994;2023-01-08T01:23:52;4.43;;;2.70;;
4323;SDS011;2175;51.018;6.994;2023-01-08T01:26:19;3.20;;;2.43;;
4323;SDS011;2175;51.018;6.994;2023-01-08T01:28:46;3.30;;;2.37;;
4323;SDS011;2175;51.018;6.994;2023-01-08T01:31:12;4.57;;;2.37;;
4323;SDS011;2175;51.018;6.994;2023-01-08T01:33:39;4.13;;;2.40;;
4323;SDS011;2175;51.018;6.994;2023-01-08T01:36:05;3.37;;;2.27;;
4323;SDS011;2175;51.018;6.994;2023-01-08T01:38:32;4.10;;;2.27;;
4323;SDS011;2175;51.018;6.994;2023-01-08T01:40:58;3.63;;;2.17;;
4323;SDS011;2175;51.018;6.994;2023-01-08T01:43:40;3.17;;;2.33;;
4323;SDS011;2175;51.018;6.994;2023-01-08T01:46:49;4.70;;;2.50;;
4323;SDS011;2175;51.018;6.994;2023-01-08T01:48:57;5.87;;;2.00;;
4323;SDS011;2175;51.018;6.994;2023-01-08T01:51:24;3.23;;;1.97;;
4323;SDS011;2175;51.018;6.994;2023-01-08T01:53:54;4.53;;;2.40;;
4323;SDS011;2175;51.018;6.994;2023-01-08T01:56:21;2.27;;;1.93;;
4323;SDS011;2175;51.018;6.994;2023-01-08T01:58:47;3.03;;;2.20;;
4323;SDS011;2175;51.018;6.994;2023-01-08T02:01:13;4.53;;;2.70;;
4323;SDS011;2175;51.018;6.994;2023-01-08T02:03:39;4.43;;;2.40;;
4323;SDS011;2175;51.018;6.994;2023-01-08T02:08:52;3.70;;;2.33;;
4323;SDS011;2175;51.018;6.994;2023-01-08T02:17:09;4.60;;;2.40;;
4323;SDS011;2175;51.018;6.994;2023-01-08T02:19:47;3.57;;;2.63;;
4323;SDS011;2175;51.018;6.994;2023-01-08T02:25:09;9.40;;;3.37;;
4323;SDS011;2175;51.018;6.994;2023-01-08T02:27:35;3.90;;;2.70;;
4323;SDS011;2175;51.018;6.994;2023-01-08T02:30:03;9.03;;;3.20;;
4323;SDS011;2175;51.018;6.994;2023-01-08T02:32:33;5.20;;;3.10;;
4323;SDS011;2175;51.018;6.994;2023-01-08T02:35:01;4.00;;;3.20;;
4323;SDS011;2175;51.018;6.994;2023-01-08T02:37:27;5.50;;;3.10;;
4323;SDS011;2175;51.018;6.994;2023-01-08T02:40:00;3.80;;;2.87;;
4323;SDS011;2175;51.018;6.994;2023-01-08T02:42:39;8.63;;;3.90;;
4323;SDS011;2175;51.018;6.994;2023-01-08T02:52:46;4.93;;;3.00;;
4323;SDS011;2175;51.018;6.994;2023-01-08T02:55:13;4.93;;;3.27;;
4323;SDS011;2175;51.018;6.994;2023-01-08T02:57:40;6.03;;;3.20;;
4323;SDS011;2175;51.018;6.994;2023-01-08T03:00:06;5.63;;;3.23;;
4323;SDS011;2175;51.018;6.994;2023-01-08T03:02:32;5.83;;;3.50;;
4323;SDS011;2175;51.018;6.994;2023-01-08T03:05:02;6.97;;;3.30;;
4323;SDS011;2175;51.018;6.994;2023-01-08T03:07:29;4.20;;;3.17;;
4323;SDS011;2175;51.018;6.994;2023-01-08T03:09:56;4.43;;;3.50;;
4323;SDS011;2175;51.018;6.994;2023-01-08T03:12:43;5.70;;;3.03;;
4323;SDS011;2175;51.018;6.994;2023-01-08T03:15:10;5.87;;;3.73;;
4323;SDS011;2175;51.018;6.994;2023-01-08T03:17:45;5.27;;;3.17;;
4323;SDS011;2175;51.018;6.994;2023-01-08T03:20:18;4.67;;;3.13;;
4323;SDS011;2175;51.018;6.994;2023-01-08T03:22:45;3.53;;;3.10;;
4323;SDS011;2175;51.018;6.994;2023-01-08T03:25:13;4.53;;;3.73;;
4323;SDS011;2175;51.018;6.994;2023-01-08T03:27:42;5.73;;;3.50;;
4323;SDS011;2175;51.018;6.994;2023-01-08T03:30:10;5.70;;;3.20;;
4323;SDS011;2175;51.018;6.994;2023-01-08T03:32:36;6.10;;;3.33;;
4323;SDS011;2175;51.018;6.994;2023-01-08T03:35:04;3.97;;;3.00;;
4323;SDS011;2175;51.018;6.994;2023-01-08T03:37:34;5.53;;;3.13;;
4323;SDS011;2175;51.018;6.994;2023-01-08T03:40:06;4.70;;;3.87;;
4323;SDS011;2175;51.018;6.994;2023-01-08T03:42:34;5.37;;;3.50;;
4323;SDS011;2175;51.018;6.994;2023-01-08T03:45:00;8.90;;;4.10;;
4323;SDS011;2175;51.018;6.994;2023-01-08T03:47:28;5.03;;;3.47;;
4323;SDS011;2175;51.018;6.994;2023-01-08T03:49:55;4.13;;;2.80;;
4323;SDS011;2175;51.018;6.994;2023-01-08T03:52:26;5.50;;;3.33;;
4323;SDS011;2175;51.018;6.994;2023-01-08T03:54:52;3.67;;;3.27;;
4323;SDS011;2175;51.018;6.994;2023-01-08T03:57:18;5.90;;;2.90;;
4323;SDS011;2175;51.018;6.994;2023-01-08T03:59:44;3.83;;;3.30;;
4323;SDS011;2175;51.018;6.994;2023-01-08T04:02:11;5.50;;;3.73;;
4323;SDS011;2175;51.018;6.994;2023-01-08T04:04:37;4.33;;;3.20;;
4323;SDS011;2175;51.018;6.994;2023-01-08T04:07:03;6.20;;;3.50;;
4323;SDS011;2175;51.018;6.994;2023-01-08T04:09:29;7.90;;;3.80;;
4323;SDS011;2175;51.018;6.994;2023-01-08T04:11:55;5.67;;;3.67;;
4323;SDS011;2175;51.018;6.994;2023-01-08T04:14:21;5.37;;;4.10;;
4323;SDS011;2175;51.018;6.994;2023-01-08T04:16:47;4.50;;;3.37;;
4323;SDS011;2175;51.018;6.994;2023-01-08T04:19:13;5.80;;;4.00;;
4323;SDS011;2175;51.018;6.994;2023-01-08T04:21:39;4.60;;;3.10;;
4323;SDS011;2175;51.018;6.994;2023-01-08T04:24:05;6.43;;;3.30;;
4323;SDS011;2175;51.018;6.994;2023-01-08T04:26:32;6.83;;;3.77;;
4323;SDS011;2175;51.018;6.994;2023-01-08T04:28:58;6.30;;;3.60;;
4323;SDS011;2175;51.018;6.994;2023-01-08T04:31:26;5.27;;;3.40;;
4323;SDS011;2175;51.018;6.994;2023-01-08T04:33:52;5.47;;;3.20;;
4323;SDS011;2175;51.018;6.994;2023-01-08T04:36:18;5.33;;;3.50;;
4323;SDS011;2175;51.018;6.994;2023-01-08T04:38:44;4.87;;;3.13;;
4323;SDS011;2175;51.018;6.994;2023-01-08T04:41:10;5.50;;;3.83;;
4323;SDS011;2175;51.018;6.994;2023-01-08T04:43:36;8.70;;;3.90;;
4323;SDS011;2175;51.018;6.994;2023-01-08T04:46:02;4.70;;;3.50;;
4323;SDS011;2175;51.018;6.994;2023-01-08T04:48:31;5.53;;;3.67;;
4323;SDS011;2175;51.018;6.994;2023-01-08T04:50:57;6.33;;;3.80;;
4323;SDS011;2175;51.018;6.994;2023-01-08T04:53:24;11.83;;;4.00;;
4323;SDS011;2175;51.018;6.994;2023-01-08T04:55:50;4.80;;;3.50;;
4323;SDS011;2175;51.018;6.994;2023-01-08T04:58:16;4.80;;;3.77;;
4323;SDS011;2175;51.018;6.994;2023-01-08T05:00:42;6.40;;;3.73;;
4323;SDS011;2175;51.018;6.994;2023-01-08T05:03:08;3.90;;;3.13;;
4323;SDS011;2175;51.018;6.994;2023-01-08T05:05:34;7.20;;;3.57;;
4323;SDS011;2175;51.018;6.994;2023-01-08T05:08:00;3.50;;;2.90;;
4323;SDS011;2175;51.018;6.994;2023-01-08T05:10:26;5.00;;;2.80;;
4323;SDS011;2175;51.018;6.994;2023-01-08T05:12:56;5.90;;;3.13;;
4323;SDS011;2175;51.018;6.994;2023-01-08T05:15:22;4.13;;;3.03;;
4323;SDS011;2175;51.018;6.994;2023-01-08T05:17:48;4.93;;;2.90;;
4323;SDS011;2175;51.018;6.994;2023-01-08T05:20:22;4.00;;;2.90;;
4323;SDS011;2175;51.018;6.994;2023-01-08T05:22:48;3.53;;;2.50;;
4323;SDS011;2175;51.018;6.994;2023-01-08T05:25:14;5.80;;;2.83;;
4323;SDS011;2175;51.018;6.994;2023-01-08T05:27:40;4.17;;;2.30;;
4323;SDS011;2175;51.018;6.994;2023-01-08T05:30:06;2.63;;;2.30;;
4323;SDS011;2175;51.018;6.994;2023-01-08T05:32:32;3.20;;;2.57;;
4323;SDS011;2175;51.018;6.994;2023-01-08T05:34:58;4.43;;;2.47;;
4323;SDS011;2175;51.018;6.994;2023-01-08T05:37:24;7.03;;;2.70;;
4323;SDS011;2175;51.018;6.994;2023-01-08T05:39:50;6.13;;;2.63;;
4323;SDS011;2175;51.018;6.994;2023-01-08T05:42:16;2.77;;;1.87;;
4323;SDS011;2175;51.018;6.994;2023-01-08T05:44:42;3.47;;;2.13;;
4323;SDS011;2175;51.018;6.994;2023-01-08T05:47:08;4.83;;;2.10;;
4323;SDS011;2175;51.018;6.994;2023-01-08T05:49:34;3.27;;;2.17;;
4323;SDS011;2175;51.018;6.994;2023-01-08T05:52:00;4.77;;;2.33;;
4323;SDS011;2175;51.018;6.994;2023-01-08T05:54:26;5.23;;;2.17;;
4323;SDS011;2175;51.018;6.994;2023-01-08T05:56:52;2.77;;;2.00;;
4323;SDS011;2175;51.018;6.994;2023-01-08T05:59:18;3.30;;;1.90;;
4323;SDS011;2175;51.018;6.994;2023-01-08T06:01:44;1.80;;;1.63;;
4323;SDS011;2175;51.018;6.994;2023-01-08T06:04:10;2.07;;;1.87;;
4323;SDS011;2175;51.018;6.994;2023-01-08T06:06:36;4.30;;;2.00;;
4323;SDS011;2175;51.018;6.994;2023-01-08T06:09:02;2.37;;;1.53;;
4323;SDS011;2175;51.018;6.994;2023-01-08T06:11:28;2.10;;;1.40;;
4323;SDS011;2175;51.018;6.994;2023-01-08T06:13:54;2.80;;;1.63;;
4323;SDS011;2175;51.018;6.994;2023-01-08T06:16:20;2.40;;;1.73;;
4323;SDS011;2175;51.018;6.994;2023-01-08T06:18:46;3.73;;;1.50;;
4323;SDS011;2175;51.018;6.994;2023-01-08T06:21:12;4.20;;;1.90;;
4323;SDS011;2175;51.018;6.994;2023-01-08T06:23:39;2.43;;;1.80;;
4323;SDS011;2175;51.018;6.994;2023-01-08T06:26:05;2.63;;;1.67;;
4323;SDS011;2175;51.018;6.994;2023-01-08T06:28:31;3.00;;;1.70;;
4323;SDS011;2175;51.018;6.994;2023-01-08T06:31:00;2.70;;;1.90;;
4323;SDS011;2175;51.018;6.994;2023-01-08T06:33:27;2.10;;;1.57;;
4323;SDS011;2175;51.018;6.994;2023-01-08T06:35:53;3.10;;;1.50;;
4323;SDS011;2175;51.018;6.994;2023-01-08T06:38:19;3.10;;;1.77;;
4323;SDS011;2175;51.018;6.994;2023-01-08T06:40:46;3.57;;;1.60;;
4323;SDS011;2175;51.018;6.994;2023-01-08T06:43:12;2.20;;;1.30;;
4323;SDS011;2175;51.018;6.994;2023-01-08T06:45:38;3.30;;;1.67;;
4323;SDS011;2175;51.018;6.994;2023-01-08T06:48:05;3.50;;;2.30;;
4323;SDS011;2175;51.018;6.994;2023-01-08T06:50:31;1.90;;;1.30;;
4323;SDS011;2175;51.018;6.994;2023-01-08T06:52:58;1.63;;;1.23;;
4323;SDS011;2175;51.018;6.994;2023-01-08T06:55:24;4.27;;;1.37;;
4323;SDS011;2175;51.018;6.994;2023-01-08T06:57:54;1.97;;;1.50;;
4323;SDS011;2175;51.018;6.994;2023-01-08T07:00:20;3.67;;;1.63;;
4323;SDS011;2175;51.018;6.994;2023-01-08T07:02:50;4.20;;;1.60;;
4323;SDS011;2175;51.018;6.994;2023-01-08T07:05:16;3.27;;;1.90;;
4323;SDS011;2175;51.018;6.994;2023-01-08T07:07:43;4.63;;;1.40;;
4323;SDS011;2175;51.018;6.994;2023-01-08T07:10:09;2.70;;;1.30;;
4323;SDS011;2175;51.018;6.994;2023-01-08T07:12:35;2.07;;;1.40;;
4323;SDS011;2175;51.018;6.994;2023-01-08T07:15:04;4.10;;;1.60;;
4323;SDS011;2175;51.018;6.994;2023-01-08T07:17:31;2.97;;;1.10;;
4323;SDS011;2175;51.018;6.994;2023-01-08T07:19:57;7.83;;;1.40;;
4323;SDS011;2175;51.018;6.994;2023-01-08T07:22:23;2.80;;;1.20;;
4323;SDS011;2175;51.018;6.994;2023-01-08T07:24:50;6.03;;;1.20;;
4323;SDS011;2175;51.018;6.994;2023-01-08T07:27:16;7.50;;;1.43;;
4323;SDS011;2175;51.018;6.994;2023-01-08T07:29:43;1.93;;;1.00;;
4323;SDS011;2175;51.018;6.994;2023-01-08T07:32:11;4.27;;;1.20;;
4323;SDS011;2175;51.018;6.994;2023-01-08T07:34:37;3.23;;;1.23;;
4323;SDS011;2175;51.018;6.994;2023-01-08T07:37:03;4.90;;;1.60;;
4323;SDS011;2175;51.018;6.994;2023-01-08T07:39:29;11.83;;;1.57;;
4323;SDS011;2175;51.018;6.994;2023-01-08T07:41:56;3.43;;;1.60;;
4323;SDS011;2175;51.018;6.994;2023-01-08T07:44:22;3.27;;;1.33;;
4323;SDS011;2175;51.018;6.994;2023-01-08T07:46:48;5.23;;;1.70;;
4323;SDS011;2175;51.018;6.994;2023-01-08T07:49:14;2.30;;;1.33;;
4323;SDS011;2175;51.018;6.994;2023-01-08T07:51:40;6.40;;;1.33;;
4323;SDS011;2175;51.018;6.994;2023-01-08T07:54:06;5.20;;;1.80;;
4323;SDS011;2175;51.018;6.994;2023-01-08T07:56:32;6.60;;;1.70;;
4323;SDS011;2175;51.018;6.994;2023-01-08T07:58:58;5.33;;;1.53;;
4323;SDS011;2175;51.018;6.994;2023-01-08T08:01:24;5.60;;;1.90;;
4323;SDS011;2175;51.018;6.994;2023-01-08T08:03:50;3.33;;;1.50;;
4323;SDS011;2175;51.018;6.994;2023-01-08T08:06:16;5.07;;;1.67;;
4323;SDS011;2175;51.018;6.994;2023-01-08T08:08:42;6.47;;;1.77;;
4323;SDS011;2175;51.018;6.994;2023-01-08T08:11:08;10.90;;;1.90;;
4323;SDS011;2175;51.018;6.994;2023-01-08T08:13:34;10.20;;;1.93;;
4323;SDS011;2175;51.018;6.994;2023-01-08T08:16:03;6.70;;;2.20;;
4323;SDS011;2175;51.018;6.994;2023-01-08T08:18:29;6.47;;;1.60;;
4323;SDS011;2175;51.018;6.994;2023-01-08T08:20:55;3.57;;;1.60;;
4323;SDS011;2175;51.018;6.994;2023-01-08T08:23:22;7.23;;;1.70;;
4323;SDS011;2175;51.018;6.994;2023-01-08T08:25:48;6.17;;;1.90;;
4323;SDS011;2175;51.018;6.994;2023-01-08T08:28:15;7.20;;;2.10;;
4323;SDS011;2175;51.018;6.994;2023-01-08T08:30:41;5.70;;;2.03;;
4323;SDS011;2175;51.018;6.994;2023-01-08T08:33:07;5.30;;;1.80;;
4323;SDS011;2175;51.018;6.994;2023-01-08T08:35:34;7.87;;;1.67;;
4323;SDS011;2175;51.018;6.994;2023-01-08T08:38:00;10.93;;;1.83;;
4323;SDS011;2175;51.018;6.994;2023-01-08T08:40:26;7.10;;;1.50;;
4323;SDS011;2175;51.018;6.994;2023-01-08T08:42:56;7.07;;;1.80;;
4323;SDS011;2175;51.018;6.994;2023-01-08T08:45:23;9.77;;;2.40;;
4323;SDS011;2175;51.018;6.994;2023-01-08T08:47:49;5.57;;;1.80;;
4323;SDS011;2175;51.018;6.994;2023-01-08T08:50:15;6.80;;;2.07;;
4323;SDS011;2175;51.018;6.994;2023-01-08T08:52:41;5.57;;;1.80;;
4323;SDS011;2175;51.018;6.994;2023-01-08T08:55:09;5.53;;;2.30;;
4323;SDS011;2175;51.018;6.994;2023-01-08T08:57:39;6.10;;;2.20;;
4323;SDS011;2175;51.018;6.994;2023-01-08T09:00:06;5.13;;;2.20;;
4323;SDS011;2175;51.018;6.994;2023-01-08T09:02:32;9.43;;;2.50;;
4323;SDS011;2175;51.018;6.994;2023-01-08T09:04:58;8.13;;;1.97;;
4323;SDS011;2175;51.018;6.994;2023-01-08T09:07:24;5.63;;;1.80;;
4323;SDS011;2175;51.018;6.994;2023-01-08T09:09:50;6.10;;;1.83;;
4323;SDS011;2175;51.018;6.994;2023-01-08T09:12:16;8.93;;;2.30;;
4323;SDS011;2175;51.018;6.994;2023-01-08T09:14:42;7.33;;;2.60;;
4323;SDS011;2175;51.018;6.994;2023-01-08T09:17:08;5.30;;;1.83;;
4323;SDS011;2175;51.018;6.994;2023-01-08T09:19:34;9.70;;;2.40;;
4323;SDS011;2175;51.018;6.994;2023-01-08T09:22:01;5.17;;;1.87;;
4323;SDS011;2175;51.018;6.994;2023-01-08T09:24:27;3.97;;;1.93;;
4323;SDS011;2175;51.018;6.994;2023-01-08T09:26:56;9.87;;;2.37;;
4323;SDS011;2175;51.018;6.994;2023-01-08T09:29:22;6.83;;;2.10;;
4323;SDS011;2175;51.018;6.994;2023-01-08T09:31:48;8.20;;;1.97;;
4323;SDS011;2175;51.018;6.994;2023-01-08T09:34:14;6.80;;;2.43;;
4323;SDS011;2175;51.018;6.994;2023-01-08T09:36:41;8.93;;;2.17;;
4323;SDS011;2175;51.018;6.994;2023-01-08T09:39:07;4.40;;;1.80;;
4323;SDS011;2175;51.018;6.994;2023-01-08T09:41:34;8.00;;;1.90;;
4323;SDS011;2175;51.018;6.994;2023-01-08T09:44:01;6.37;;;2.40;;
4323;SDS011;2175;51.018;6.994;2023-01-08T09:46:28;4.50;;;1.63;;
4323;SDS011;2175;51.018;6.994;2023-01-08T09:48:59;6.97;;;1.87;;
4323;SDS011;2175;51.018;6.994;2023-01-08T09:51:35;3.00;;;1.97;;
4323;SDS011;2175;51.018;6.994;2023-01-08T09:54:01;3.83;;;1.70;;
4323;SDS011;2175;51.018;6.994;2023-01-08T09:56:28;4.77;;;2.00;;
4323;SDS011;2175;51.018;6.994;2023-01-08T09:58:55;8.33;;;2.17;;
4323;SDS011;2175;51.018;6.994;2023-01-08T10:01:24;7.00;;;2.17;;
4323;SDS011;2175;51.018;6.994;2023-01-08T10:06:29;3.00;;;1.70;;
4323;SDS011;2175;51.018;6.994;2023-01-08T10:08:55;5.87;;;2.00;;
4323;SDS011;2175;51.018;6.994;2023-01-08T10:11:21;4.67;;;1.97;;
4323;SDS011;2175;51.018;6.994;2023-01-08T10:13:51;6.90;;;2.03;;
4323;SDS011;2175;51.018;6.994;2023-01-08T10:16:28;5.83;;;1.93;;
4323;SDS011;2175;51.018;6.994;2023-01-08T10:18:55;2.73;;;1.50;;
4323;SDS011;2175;51.018;6.994;2023-01-08T10:21:23;4.33;;;1.73;;
4323;SDS011;2175;51.018;6.994;2023-01-08T10:23:53;9.43;;;1.90;;
4323;SDS011;2175;51.018;6.994;2023-01-08T10:26:26;3.60;;;1.70;;
4323;SDS011;2175;51.018;6.994;2023-01-08T10:29:04;8.50;;;2.00;;
4323;SDS011;2175;51.018;6.994;2023-01-08T10:34:06;7.87;;;2.30;;
4323;SDS011;2175;51.018;6.994;2023-01-08T10:36:36;4.37;;;1.50;;
4323;SDS011;2175;51.018;6.994;2023-01-08T10:39:04;3.80;;;1.83;;
4323;SDS011;2175;51.018;6.994;2023-01-08T10:41:30;5.63;;;2.10;;
4323;SDS011;2175;51.018;6.994;2023-01-08T10:44:02;4.30;;;2.20;;
4323;SDS011;2175;51.018;6.994;2023-01-08T10:49:00;3.87;;;1.90;;
4323;SDS011;2175;51.018;6.994;2023-01-08T10:51:28;4.10;;;2.30;;
4323;SDS011;2175;51.018;6.994;2023-01-08T10:53:56;7.63;;;2.27;;
4323;SDS011;2175;51.018;6.994;2023-01-08T10:56:24;7.10;;;2.37;;
4323;SDS011;2175;51.018;6.994;2023-01-08T10:58:50;4.07;;;2.03;;
4323;SDS011;2175;51.018;6.994;2023-01-08T11:01:19;5.30;;;2.50;;
4323;SDS011;2175;51.018;6.994;2023-01-08T11:03:48;6.27;;;1.80;;
4323;SDS011;2175;51.018;6.994;2023-01-08T11:06:21;6.20;;;2.10;;
4323;SDS011;2175;51.018;6.994;2023-01-08T11:08:49;6.03;;;1.93;;
4323;SDS011;2175;51.018;6.994;2023-01-08T11:11:15;5.13;;;1.70;;
4323;SDS011;2175;51.018;6.994;2023-01-08T11:13:48;3.50;;;1.57;;
4323;SDS011;2175;51.018;6.994;2023-01-08T11:16:14;7.63;;;1.67;;
4323;SDS011;2175;51.018;6.994;2023-01-08T11:18:42;3.43;;;1.50;;
4323;SDS011;2175;51.018;6.994;2023-01-08T11:21:16;6.80;;;2.00;;
4323;SDS011;2175;51.018;6.994;2023-01-08T11:23:43;5.00;;;2.20;;
4323;SDS011;2175;51.018;6.994;2023-01-08T11:26:10;8.60;;;2.23;;
4323;SDS011;2175;51.018;6.994;2023-01-08T11:31:10;3.43;;;1.47;;
4323;SDS011;2175;51.018;6.994;2023-01-08T11:33:38;3.63;;;1.77;;
4323;SDS011;2175;51.018;6.994;2023-01-08T11:36:14;5.67;;;2.20;;
4323;SDS011;2175;51.018;6.994;2023-01-08T11:38:45;3.00;;;1.83;;
4323;SDS011;2175;51.018;6.994;2023-01-08T11:41:27;5.30;;;1.83;;
4323;SDS011;2175;51.018;6.994;2023-01-08T11:44:30;3.30;;;1.60;;
4323;SDS011;2175;51.018;6.994;2023-01-08T11:49:23;6.20;;;1.80;;
4323;SDS011;2175;51.018;6.994;2023-01-08T12:05:21;3.40;;;1.80;;
4323;SDS011;2175;51.018;6.994;2023-01-08T12:13:12;5.10;;;1.80;;
4323;SDS011;2175;51.018;6.994;2023-01-08T12:20:59;3.47;;;2.00;;
4323;SDS011;2175;51.018;6.994;2023-01-08T12:26:22;4.87;;;1.87;;
4323;SDS011;2175;51.018;6.994;2023-01-08T12:33:50;1.80;;;1.47;;
4323;SDS011;2175;51.018;6.994;2023-01-08T12:36:23;4.70;;;1.60;;
4323;SDS011;2175;51.018;6.994;2023-01-08T12:39:01;2.00;;;1.30;;
4323;SDS011;2175;51.018;6.994;2023-01-08T12:41:32;2.90;;;1.27;;
4323;SDS011;2175;51.018;6.994;2023-01-08T12:44:04;3.07;;;1.30;;
4323;SDS011;2175;51.018;6.994;2023-01-08T12:46:31;2.60;;;1.23;;
4323;SDS011;2175;51.018;6.994;2023-01-08T12:48:58;1.93;;;1.20;;
4323;SDS011;2175;51.018;6.994;2023-01-08T12:51:30;4.50;;;1.40;;
4323;SDS011;2175;51.018;6.994;2023-01-08T12:54:05;4.10;;;1.30;;
4323;SDS011;2175;51.018;6.994;2023-01-08T13:01:51;2.60;;;1.43;;
4323;SDS011;2175;51.018;6.994;2023-01-08T13:04:20;3.63;;;1.60;;
4323;SDS011;2175;51.018;6.994;2023-01-08T13:07:02;2.03;;;1.50;;
4323;SDS011;2175;51.018;6.994;2023-01-08T13:09:29;3.37;;;1.40;;
4323;SDS011;2175;51.018;6.994;2023-01-08T13:11:56;2.50;;;1.27;;
4323;SDS011;2175;51.018;6.994;2023-01-08T13:14:23;3.33;;;1.50;;
4323;SDS011;2175;51.018;6.994;2023-01-08T13:16:59;2.47;;;1.53;;
4323;SDS011;2175;51.018;6.994;2023-01-08T13:19:26;3.60;;;1.50;;
4323;SDS011;2175;51.018;6.994;2023-01-08T13:21:54;1.70;;;1.20;;
4323;SDS011;2175;51.018;6.994;2023-01-08T13:24:38;2.50;;;1.40;;
4323;SDS011;2175;51.018;6.994;2023-01-08T13:27:10;4.70;;;1.40;;
4323;SDS011;2175;51.018;6.994;2023-01-08T13:29:39;1.60;;;1.10;;
4323;SDS011;2175;51.018;6.994;2023-01-08T13:34:48;2.70;;;1.30;;
4323;SDS011;2175;51.018;6.994;2023-01-08T13:37:25;2.07;;;1.10;;
4323;SDS011;2175;51.018;6.994;2023-01-08T13:39:51;1.90;;;1.20;;
4323;SDS011;2175;51.018;6.994;2023-01-08T13:42:21;2.20;;;1.23;;
4323;SDS011;2175;51.018;6.994;2023-01-08T13:44:51;2.03;;;1.03;;
4323;SDS011;2175;51.018;6.994;2023-01-08T13:47:34;2.10;;;1.20;;
4323;SDS011;2175;51.018;6.994;2023-01-08T13:50:04;1.97;;;1.10;;
4323;SDS011;2175;51.018;6.994;2023-01-08T13:52:33;1.90;;;1.13;;
4323;SDS011;2175;51.018;6.994;2023-01-08T13:55:00;3.37;;;1.30;;
4323;SDS011;2175;51.018;6.994;2023-01-08T13:57:30;1.63;;;1.10;;
4323;SDS011;2175;51.018;6.994;2023-01-08T13:59:58;2.43;;;1.30;;
4323;SDS011;2175;51.018;6.994;2023-01-08T14:02:29;2.83;;;1.30;;
4323;SDS011;2175;51.018;6.994;2023-01-08T14:04:56;2.30;;;1.20;;
4323;SDS011;2175;51.018;6.994;2023-01-08T14:07:23;1.87;;;1.10;;
4323;SDS011;2175;51.018;6.994;2023-01-08T14:09:49;2.20;;;1.20;;
4323;SDS011;2175;51.018;6.994;2023-01-08T14:12:19;2.10;;;1.40;;
4323;SDS011;2175;51.018;6.994;2023-01-08T14:14:47;1.77;;;1.10;;
4323;SDS011;2175;51.018;6.994;2023-01-08T14:17:17;1.60;;;1.10;;
4323;SDS011;2175;51.018;6.994;2023-01-08T14:19:44;2.90;;;1.37;;
4323;SDS011;2175;51.018;6.994;2023-01-08T14:22:13;2.20;;;1.10;;
4323;SDS011;2175;51.018;6.994;2023-01-08T14:24:41;2.57;;;1.20;;
4323;SDS011;2175;51.018;6.994;2023-01-08T14:27:19;1.70;;;1.20;;
4323;SDS011;2175;51.018;6.994;2023-01-08T14:29:46;3.20;;;1.30;;
4323;SDS011;2175;51.018;6.994;2023-01-08T14:32:16;2.60;;;1.10;;
4323;SDS011;2175;51.018;6.994;2023-01-08T14:34:42;3.53;;;1.53;;
4323;SDS011;2175;51.018;6.994;2023-01-08T14:37:12;5.90;;;1.33;;
4323;SDS011;2175;51.018;6.994;2023-01-08T14:39:38;2.03;;;1.20;;
4323;SDS011;2175;51.018;6.994;2023-01-08T14:42:06;3.40;;;1.50;;
4323;SDS011;2175;51.018;6.994;2023-01-08T14:44:53;1.90;;;1.30;;
4323;SDS011;2175;51.018;6.994;2023-01-08T14:47:19;1.70;;;1.20;;
4323;SDS011;2175;51.018;6.994;2023-01-08T14:49:49;3.60;;;1.70;;
4323;SDS011;2175;51.018;6.994;2023-01-08T14:52:18;1.97;;;1.30;;
4323;SDS011;2175;51.018;6.994;2023-01-08T14:54:46;2.60;;;1.40;;
4323;SDS011;2175;51.018;6.994;2023-01-08T14:57:14;8.10;;;1.53;;
4323;SDS011;2175;51.018;6.994;2023-01-08T14:59:42;2.43;;;1.30;;
4323;SDS011;2175;51.018;6.994;2023-01-08T15:02:17;2.33;;;1.40;;
4323;SDS011;2175;51.018;6.994;2023-01-08T15:04:47;3.57;;;1.33;;
4323;SDS011;2175;51.018;6.994;2023-01-08T15:07:19;3.40;;;1.40;;
4323;SDS011;2175;51.018;6.994;2023-01-08T15:09:54;4.00;;;1.40;;
4323;SDS011;2175;51.018;6.994;2023-01-08T15:12:24;2.20;;;1.20;;
4323;SDS011;2175;51.018;6.994;2023-01-08T15:14:51;2.70;;;1.50;;
4323;SDS011;2175;51.018;6.994;2023-01-08T15:17:19;3.00;;;1.47;;
4323;SDS011;2175;51.018;6.994;2023-01-08T15:19:47;1.90;;;1.40;;
4323;SDS011;2175;51.018;6.994;2023-01-08T15:22:24;3.20;;;1.40;;
4323;SDS011;2175;51.018;6.994;2023-01-08T15:24:54;2.30;;;1.40;;
4323;SDS011;2175;51.018;6.994;2023-01-08T15:27:22;1.90;;;1.30;;
4323;SDS011;2175;51.018;6.994;2023-01-08T15:29:49;2.47;;;1.40;;
4323;SDS011;2175;51.018;6.994;2023-01-08T15:34:42;2.60;;;1.47;;
4323;SDS011;2175;51.018;6.994;2023-01-08T15:37:08;2.27;;;1.20;;
4323;SDS011;2175;51.018;6.994;2023-01-08T15:39:35;3.57;;;1.60;;
4323;SDS011;2175;51.018;6.994;2023-01-08T15:44:55;2.80;;;1.30;;
4323;SDS011;2175;51.018;6.994;2023-01-08T15:47:23;5.30;;;2.00;;
4323;SDS011;2175;51.018;6.994;2023-01-08T15:49:49;4.10;;;1.50;;
4323;SDS011;2175;51.018;6.994;2023-01-08T15:52:16;2.63;;;1.30;;
4323;SDS011;2175;51.018;6.994;2023-01-08T15:54:44;3.70;;;1.73;;
4323;SDS011;2175;51.018;6.994;2023-01-08T15:57:10;3.03;;;1.57;;
4323;SDS011;2175;51.018;6.994;2023-01-08T15:59:37;2.93;;;1.40;;
4323;SDS011;2175;51.018;6.994;2023-01-08T16:02:03;3.63;;;1.53;;
4323;SDS011;2175;51.018;6.994;2023-01-08T16:04:29;3.80;;;1.63;;
4323;SDS011;2175;51.018;6.994;2023-01-08T16:06:55;2.70;;;1.30;;
4323;SDS011;2175;51.018;6.994;2023-01-08T16:09:21;2.70;;;1.27;;
4323;SDS011;2175;51.018;6.994;2023-01-08T16:11:48;1.50;;;1.20;;
4323;SDS011;2175;51.018;6.994;2023-01-08T16:14:15;2.27;;;1.07;;
4323;SDS011;2175;51.018;6.994;2023-01-08T16:16:41;3.30;;;1.20;;
4323;SDS011;2175;51.018;6.994;2023-01-08T16:19:07;3.77;;;1.40;;
4323;SDS011;2175;51.018;6.994;2023-01-08T16:21:33;2.70;;;1.20;;
4323;SDS011;2175;51.018;6.994;2023-01-08T16:23:59;2.83;;;1.30;;
4323;SDS011;2175;51.018;6.994;2023-01-08T16:26:25;2.30;;;1.20;;
4323;SDS011;2175;51.018;6.994;2023-01-08T16:28:51;3.03;;;1.50;;
4323;SDS011;2175;51.018;6.994;2023-01-08T16:31:17;5.00;;;1.20;;
4323;SDS011;2175;51.018;6.994;2023-01-08T16:33:43;2.37;;;1.20;;
4323;SDS011;2175;51.018;6.994;2023-01-08T16:36:09;2.17;;;1.37;;